createdAt,value
2022-09-12T00:02:04.437Z,36.30
2022-09-12T00:04:31.542Z,24.40
2022-09-12T00:06:58.459Z,28.10
2022-09-12T00:09:25.404Z,42.70
2022-09-12T00:11:52.377Z,56.20
2022-09-12T00:14:19.860Z,68.00
2022-09-12T00:16:47.341Z,73.20
2022-09-12T00:19:15.447Z,79.50
2022-09-12T00:21:42.441Z,77.60
2022-09-12T00:24:11.279Z,54.90
2022-09-12T00:26:40.337Z,46.90
2022-09-12T00:29:07.280Z,45.10
2022-09-12T00:31:34.667Z,54.90
2022-09-12T00:34:01.773Z,71.60
2022-09-12T00:36:31.744Z,74.00
2022-09-12T00:38:59.224Z,85.80
2022-09-12T00:41:35.727Z,68.60
2022-09-12T00:44:10.333Z,65.40
2022-09-12T00:46:48.678Z,84.80
2022-09-12T00:49:18.301Z,87.40
2022-09-12T00:51:51.464Z,65.50
2022-09-12T00:54:23.198Z,62.00
2022-09-12T00:56:53.791Z,85.80
2022-09-12T00:59:26.645Z,87.70
2022-09-12T01:01:54.721Z,91.40
2022-09-12T01:04:23.763Z,92.50
2022-09-12T01:06:52.202Z,93.80
2022-09-12T01:09:23.160Z,90.20
2022-09-12T01:11:51.735Z,84.70
2022-09-12T01:14:19.961Z,87.00
2022-09-12T01:16:49.372Z,83.80
2022-09-12T01:19:49.751Z,92.80
2022-09-12T01:22:22.112Z,93.10
2022-09-12T01:25:16.868Z,99.90
2022-09-12T01:28:05.378Z,99.90
2022-09-12T01:30:56.003Z,99.90
2022-09-12T01:33:49.601Z,99.90
2022-09-12T01:36:25.961Z,99.90
2022-09-12T01:39:03.717Z,99.90
2022-09-12T01:41:43.734Z,99.90
2022-09-12T01:44:24.203Z,99.90
2022-09-12T01:47:10.242Z,99.90
2022-09-12T01:49:46.491Z,99.90
2022-09-12T01:52:28.062Z,99.90
2022-09-12T01:54:59.283Z,99.90
2022-09-12T01:57:33.844Z,99.90
2022-09-12T02:00:10.091Z,99.90
2022-09-12T02:02:47.423Z,99.90
2022-09-12T02:05:22.311Z,99.90
2022-09-12T02:07:57.250Z,99.90
2022-09-12T02:10:32.376Z,99.90
2022-09-12T02:13:12.529Z,99.90
2022-09-12T02:15:50.884Z,99.90
2022-09-12T02:18:20.007Z,99.90
2022-09-12T02:20:49.334Z,99.90
2022-09-12T02:23:27.829Z,99.90
2022-09-12T02:26:03.386Z,99.90
2022-09-12T02:28:34.637Z,99.90
2022-09-12T02:31:08.613Z,99.90
2022-09-12T02:33:56.587Z,99.90
2022-09-12T02:36:35.643Z,99.90
2022-09-12T02:39:02.771Z,99.90
2022-09-12T02:41:29.766Z,99.90
2022-09-12T02:43:56.806Z,99.90
2022-09-12T02:46:34.590Z,99.90
2022-09-12T02:49:01.608Z,99.90
2022-09-12T02:51:28.619Z,99.90
2022-09-12T02:53:56.116Z,99.90
2022-09-12T02:56:32.186Z,99.90
2022-09-12T02:59:09.551Z,99.90
2022-09-12T03:01:54.513Z,99.90
2022-09-12T03:04:32.912Z,99.90
2022-09-12T03:07:37.963Z,99.90
2022-09-12T03:10:15.496Z,99.90
2022-09-12T03:12:48.454Z,99.90
2022-09-12T03:15:34.417Z,99.90
2022-09-12T03:18:39.252Z,99.90
2022-09-12T03:21:15.175Z,99.90
2022-09-12T03:24:11.172Z,99.90
2022-09-12T03:26:50.049Z,99.90
2022-09-12T03:29:18.632Z,99.90
2022-09-12T03:32:03.726Z,99.90
2022-09-12T03:34:30.665Z,99.90
2022-09-12T03:36:58.257Z,99.90
2022-09-12T03:39:27.058Z,99.90
2022-09-12T03:41:55.377Z,99.90
2022-09-12T03:44:23.214Z,99.90
2022-09-12T03:46:50.301Z,99.90
2022-09-12T03:49:17.705Z,99.90
2022-09-12T03:51:44.871Z,99.90
2022-09-12T03:54:12.811Z,99.90
2022-09-12T03:56:41.312Z,99.90
2022-09-12T03:59:08.334Z,99.90
2022-09-12T04:01:35.548Z,99.90
2022-09-12T04:04:02.711Z,99.90
2022-09-12T04:06:29.905Z,99.90
2022-09-12T04:08:56.941Z,99.90
2022-09-12T04:11:24.259Z,99.90
2022-09-12T04:13:51.274Z,99.90
2022-09-12T04:16:18.796Z,99.90
2022-09-12T04:18:46.487Z,99.90
2022-09-12T04:21:19.952Z,99.90
2022-09-12T04:23:46.905Z,99.90
2022-09-12T04:26:15.144Z,99.90
2022-09-12T04:28:42.459Z,99.90
2022-09-12T04:31:13.519Z,99.90
2022-09-12T04:33:40.448Z,99.90
2022-09-12T04:36:10.349Z,99.90
2022-09-12T04:38:38.477Z,99.90
2022-09-12T04:41:16.611Z,99.90
2022-09-12T04:43:46.597Z,99.90
2022-09-12T04:46:16.791Z,99.90
2022-09-12T04:48:44.198Z,99.90
2022-09-12T04:51:12.435Z,99.90
2022-09-12T04:53:40.125Z,99.90
2022-09-12T04:56:09.008Z,99.90
2022-09-12T04:58:36.693Z,99.90
2022-09-12T05:01:13.896Z,99.90
2022-09-12T05:03:45.332Z,99.90
2022-09-12T05:06:17.817Z,99.90
2022-09-12T05:08:45.166Z,99.90
2022-09-12T05:11:15.171Z,99.90
2022-09-12T05:13:42.820Z,99.90
2022-09-12T05:16:12.334Z,99.90
2022-09-12T05:18:39.563Z,99.90
2022-09-12T05:21:09.403Z,99.90
2022-09-12T05:23:37.387Z,99.90
2022-09-12T05:26:06.013Z,99.90
2022-09-12T05:28:37.694Z,99.90
2022-09-12T05:31:07.503Z,99.90
2022-09-12T05:33:37.973Z,99.90
2022-09-12T05:36:07.509Z,99.90
2022-09-12T05:38:37.954Z,99.90
2022-09-12T05:41:18.231Z,99.90
2022-09-12T05:43:51.188Z,99.90
2022-09-12T05:46:20.409Z,99.90
2022-09-12T05:48:51.444Z,99.90
2022-09-12T05:51:28.660Z,99.90
2022-09-12T05:54:00.323Z,99.90
2022-09-12T05:56:32.420Z,99.90
2022-09-12T05:59:02.074Z,99.90
2022-09-12T06:01:30.823Z,99.90
2022-09-12T06:04:02.406Z,99.90
2022-09-12T06:06:31.462Z,99.90
2022-09-12T06:09:00.714Z,99.90
2022-09-12T06:11:29.765Z,99.90
2022-09-12T06:13:58.172Z,99.90
2022-09-12T06:16:27.674Z,99.90
2022-09-12T06:19:01.134Z,99.90
2022-09-12T06:21:29.013Z,99.90
2022-09-12T06:23:55.965Z,99.90
2022-09-12T06:26:25.722Z,99.90
2022-09-12T06:28:54.313Z,99.90
2022-09-12T06:31:30.616Z,99.90
2022-09-12T06:34:01.331Z,99.90
2022-09-12T06:36:30.413Z,99.90
2022-09-12T06:39:00.950Z,99.90
2022-09-12T06:41:29.362Z,99.90
2022-09-12T06:43:56.602Z,99.90
2022-09-12T06:46:23.978Z,99.90
2022-09-12T06:48:51.247Z,99.90
2022-09-12T06:51:22.881Z,99.90
2022-09-12T06:53:50.223Z,99.90
2022-09-12T06:56:19.696Z,99.90
2022-09-12T06:58:48.041Z,99.90
2022-09-12T07:01:17.393Z,99.90
2022-09-12T07:03:49.110Z,99.90
2022-09-12T07:06:17.663Z,90.80
2022-09-12T07:08:45.657Z,75.80
2022-09-12T07:11:14.130Z,62.30
2022-09-12T07:13:42.243Z,90.50
2022-09-12T07:16:10.697Z,88.60
2022-09-12T07:18:39.351Z,71.20
2022-09-12T07:21:12.467Z,29.80
2022-09-12T07:23:40.214Z,1.00
2022-09-12T07:26:08.504Z,1.00
2022-09-12T07:28:36.038Z,1.00
2022-09-12T07:31:09.320Z,1.00
2022-09-12T07:33:37.138Z,1.00
2022-09-12T07:36:06.199Z,1.00
2022-09-12T07:38:33.396Z,1.00
2022-09-12T07:41:01.675Z,1.00
2022-09-12T07:43:28.645Z,1.00
2022-09-12T07:45:58.570Z,1.00
2022-09-12T07:48:25.523Z,1.00
2022-09-12T07:51:04.151Z,1.00
2022-09-12T07:53:33.093Z,1.00
2022-09-12T07:56:00.049Z,1.00
2022-09-12T07:58:27.301Z,1.00
2022-09-12T08:00:54.249Z,1.00
2022-09-12T08:03:21.190Z,1.00
2022-09-12T08:05:48.147Z,1.00
2022-09-12T08:08:15.207Z,1.00
2022-09-12T08:10:42.198Z,1.00
2022-09-12T08:13:10.820Z,1.00
2022-09-12T08:15:37.893Z,1.00
2022-09-12T08:18:04.990Z,1.00
2022-09-12T08:20:31.873Z,1.00
2022-09-12T08:22:58.809Z,1.00
2022-09-12T08:25:26.168Z,1.00
2022-09-12T08:27:53.050Z,1.00
2022-09-12T08:30:20.042Z,1.00
2022-09-12T08:32:47.365Z,1.00
2022-09-12T08:35:15.431Z,1.00
2022-09-12T08:37:42.337Z,1.00
2022-09-12T08:40:17.134Z,1.00
2022-09-12T08:43:10.280Z,1.00
2022-09-12T08:45:50.810Z,1.00
2022-09-12T08:48:17.971Z,1.00
2022-09-12T08:50:49.758Z,1.00
2022-09-12T08:53:21.609Z,1.00
2022-09-12T08:55:59.269Z,1.00
2022-09-12T08:58:29.054Z,1.00
2022-09-12T09:01:07.871Z,1.00
2022-09-12T09:04:12.567Z,87.60
2022-09-12T09:06:59.491Z,1.00
2022-09-12T09:09:44.900Z,1.00
2022-09-12T09:12:26.847Z,99.90
2022-09-12T09:15:32.830Z,1.00
2022-09-12T09:18:22.790Z,93.90
2022-09-12T09:20:53.382Z,99.90
2022-09-12T09:23:46.934Z,99.90
2022-09-12T09:26:16.914Z,1.00
2022-09-12T09:28:49.275Z,99.90
2022-09-12T09:31:18.752Z,1.00
2022-09-12T09:33:49.543Z,1.00
2022-09-12T09:36:34.546Z,1.00
2022-09-12T09:39:32.290Z,99.90
2022-09-12T09:42:27.923Z,99.90
2022-09-12T09:44:58.938Z,1.00
2022-09-12T09:47:26.227Z,99.90
2022-09-12T09:49:53.171Z,99.90
2022-09-12T09:52:28.370Z,18.80
2022-09-12T09:55:01.091Z,1.00
2022-09-12T09:57:37.292Z,1.00
2022-09-12T10:00:36.925Z,1.00
2022-09-12T10:03:13.155Z,1.00
2022-09-12T10:05:51.136Z,1.00
2022-09-12T10:08:27.453Z,1.00
2022-09-12T10:10:56.299Z,1.00
2022-09-12T10:13:40.325Z,1.00
2022-09-12T10:16:20.135Z,1.00
2022-09-12T10:18:47.266Z,1.00
2022-09-12T10:21:31.955Z,1.00
2022-09-12T10:24:19.292Z,1.00
2022-09-12T10:27:05.728Z,1.00
2022-09-12T10:29:36.606Z,1.00
2022-09-12T10:32:08.365Z,1.00
2022-09-12T10:34:58.584Z,1.00
2022-09-12T10:37:33.693Z,1.00
2022-09-12T10:40:02.584Z,1.00
2022-09-12T10:42:49.468Z,1.00
2022-09-12T10:45:19.920Z,1.00
2022-09-12T10:47:47.397Z,1.00
2022-09-12T10:50:32.478Z,1.00
2022-09-12T10:53:18.208Z,1.00
2022-09-12T10:55:59.956Z,1.00
2022-09-12T10:58:29.942Z,1.00
2022-09-12T11:01:26.353Z,1.00
2022-09-12T11:04:07.979Z,1.00
2022-09-12T11:07:07.713Z,1.00
2022-09-12T11:09:50.318Z,1.00
2022-09-12T11:12:48.005Z,1.00
2022-09-12T11:15:42.677Z,1.00
2022-09-12T11:18:15.216Z,1.00
2022-09-12T11:20:45.091Z,1.00
2022-09-12T11:23:27.216Z,1.00
2022-09-12T11:26:11.480Z,1.00
2022-09-12T11:29:00.409Z,1.00
2022-09-12T11:31:48.780Z,1.00
2022-09-12T11:34:24.177Z,1.00
2022-09-12T11:37:17.798Z,1.00
2022-09-12T11:39:47.243Z,1.00
2022-09-12T11:42:22.675Z,1.00
2022-09-12T11:44:59.383Z,1.00
2022-09-12T11:47:28.893Z,1.00
2022-09-12T11:49:57.628Z,1.00
2022-09-12T11:52:29.410Z,1.00
2022-09-12T11:55:05.444Z,1.00
2022-09-12T11:57:50.956Z,1.00
2022-09-12T12:00:21.103Z,1.00
2022-09-12T12:03:09.606Z,1.00
2022-09-12T12:06:15.265Z,1.00
2022-09-12T12:08:44.536Z,1.00
2022-09-12T12:11:14.433Z,1.00
2022-09-12T12:13:56.659Z,1.00
2022-09-12T12:16:26.545Z,1.00
2022-09-12T12:19:10.567Z,1.00
2022-09-12T12:21:42.414Z,1.00
2022-09-12T12:24:09.335Z,1.00
2022-09-12T12:26:39.173Z,1.00
2022-09-12T12:29:43.410Z,1.00
2022-09-12T12:32:10.879Z,1.00
2022-09-12T12:34:39.829Z,1.00
2022-09-12T12:37:29.797Z,1.00
2022-09-12T12:40:25.353Z,1.00
2022-09-12T12:43:01.658Z,1.00
2022-09-12T12:45:28.563Z,1.00
2022-09-12T12:48:06.326Z,1.00
2022-09-12T12:50:35.349Z,1.00
2022-09-12T12:53:16.485Z,1.00
2022-09-12T12:55:43.378Z,1.00
2022-09-12T12:58:31.873Z,1.00
2022-09-12T13:01:18.147Z,1.00
2022-09-12T13:03:57.922Z,1.00
2022-09-12T13:06:41.085Z,1.00
2022-09-12T13:09:38.006Z,1.00
2022-09-12T13:12:09.936Z,1.00
2022-09-12T13:14:42.974Z,1.00
2022-09-12T13:17:23.216Z,1.00
2022-09-12T13:20:10.678Z,1.00
2022-09-12T13:22:47.664Z,1.00
2022-09-12T13:25:31.246Z,1.00
2022-09-12T13:28:01.058Z,1.00
2022-09-12T13:30:32.909Z,1.00
2022-09-12T13:33:34.365Z,1.00
2022-09-12T13:36:10.199Z,1.00
2022-09-12T13:38:37.467Z,1.00
2022-09-12T13:41:22.614Z,1.00
2022-09-12T13:43:50.265Z,1.00
2022-09-12T13:46:30.983Z,1.00
2022-09-12T13:49:32.130Z,1.00
2022-09-12T13:52:16.001Z,1.00
2022-09-12T13:54:45.605Z,1.00
2022-09-12T13:57:39.214Z,1.00
2022-09-12T14:00:22.540Z,1.00
2022-09-12T14:02:49.655Z,1.00
2022-09-12T14:05:26.382Z,1.00
2022-09-12T14:07:57.264Z,1.00
2022-09-12T14:10:28.960Z,1.00
2022-09-12T14:12:57.358Z,1.00
2022-09-12T14:15:28.100Z,1.00
2022-09-12T14:18:03.306Z,1.00
2022-09-12T14:20:36.307Z,1.00
2022-09-12T14:23:16.547Z,1.00
2022-09-12T14:25:47.799Z,1.00
2022-09-12T14:28:23.193Z,1.00
2022-09-12T14:31:07.495Z,1.00
2022-09-12T14:33:50.654Z,1.00
2022-09-12T14:36:30.111Z,1.00
2022-09-12T14:39:04.094Z,1.00
2022-09-12T14:41:37.701Z,1.00
2022-09-12T14:44:08.518Z,1.00
2022-09-12T14:46:37.924Z,1.00
2022-09-12T14:49:27.229Z,1.00
2022-09-12T14:52:01.026Z,1.00
2022-09-12T14:54:27.904Z,1.00
2022-09-12T14:57:00.952Z,1.00
2022-09-12T14:59:40.972Z,1.00
2022-09-12T15:02:25.190Z,1.00
2022-09-12T15:04:55.379Z,1.00
2022-09-12T15:07:41.915Z,1.00
2022-09-12T15:10:24.197Z,1.00
2022-09-12T15:13:04.770Z,1.00
2022-09-12T15:15:32.963Z,1.00
2022-09-12T15:18:02.381Z,1.00
2022-09-12T15:20:43.777Z,1.00
2022-09-12T15:23:18.109Z,1.00
2022-09-12T15:25:45.092Z,1.00
2022-09-12T15:28:32.929Z,1.00
2022-09-12T15:31:08.572Z,1.00
2022-09-12T15:33:35.737Z,1.00
2022-09-12T15:36:02.902Z,1.00
2022-09-12T15:38:29.994Z,1.00
2022-09-12T15:40:57.419Z,1.00
2022-09-12T15:43:26.673Z,1.00
2022-09-12T15:45:53.720Z,1.00
2022-09-12T15:48:21.352Z,1.00
2022-09-12T15:50:48.647Z,1.00
2022-09-12T15:53:16.849Z,1.00
2022-09-12T15:55:44.436Z,1.00
2022-09-12T15:58:11.359Z,1.00
2022-09-12T16:00:38.411Z,1.00
2022-09-12T16:03:05.601Z,1.00
2022-09-12T16:05:32.915Z,1.00
2022-09-12T16:07:59.903Z,1.00
2022-09-12T16:10:30.321Z,1.00
2022-09-12T16:12:57.928Z,1.00
2022-09-12T16:15:25.699Z,1.00
2022-09-12T16:17:52.926Z,1.00
2022-09-12T16:20:21.006Z,1.00
2022-09-12T16:22:48.649Z,1.00
2022-09-12T16:25:15.640Z,1.00
2022-09-12T16:27:43.031Z,1.00
2022-09-12T16:30:10.722Z,1.00
2022-09-12T16:32:37.634Z,1.00
2022-09-12T16:35:05.231Z,1.00
2022-09-12T16:37:34.621Z,1.00
2022-09-12T16:40:02.857Z,1.00
2022-09-12T16:42:30.051Z,1.00
2022-09-12T16:44:57.120Z,1.00
2022-09-12T16:47:24.145Z,1.00
2022-09-12T16:49:51.430Z,1.00
2022-09-12T16:52:19.313Z,1.00
2022-09-12T16:54:46.418Z,1.00
2022-09-12T16:57:13.509Z,1.00
2022-09-12T16:59:40.465Z,1.00
2022-09-12T17:02:08.430Z,1.00
2022-09-12T17:04:35.345Z,1.00
2022-09-12T17:07:02.304Z,1.00
2022-09-12T17:09:29.486Z,1.00
2022-09-12T17:11:57.357Z,1.00
2022-09-12T17:14:24.689Z,1.00
2022-09-12T17:16:52.321Z,1.00
2022-09-12T17:19:28.240Z,1.00
2022-09-12T17:21:55.646Z,1.00
2022-09-12T17:24:23.254Z,1.00
2022-09-12T17:26:51.214Z,1.00
2022-09-12T17:29:18.365Z,1.00
2022-09-12T17:31:45.887Z,1.00
2022-09-12T17:34:17.840Z,1.00
2022-09-12T17:36:45.731Z,1.00
2022-09-12T17:39:14.670Z,1.00
2022-09-12T17:41:42.858Z,1.00
2022-09-12T17:44:12.547Z,1.00
2022-09-12T17:46:40.323Z,1.00
2022-09-12T17:49:11.524Z,1.00
2022-09-12T17:51:39.622Z,1.00
2022-09-12T17:54:16.190Z,1.00
2022-09-12T17:56:45.607Z,1.00
2022-09-12T17:59:19.217Z,1.00
2022-09-12T18:02:04.399Z,1.00
2022-09-12T18:04:31.615Z,1.00
2022-09-12T18:07:00.434Z,1.00
2022-09-12T18:09:28.390Z,1.00
2022-09-12T18:11:56.142Z,1.00
2022-09-12T18:14:23.857Z,9.00
2022-09-12T18:16:51.262Z,19.70
2022-09-12T18:19:18.755Z,27.80
2022-09-12T18:21:46.044Z,47.10
2022-09-12T18:24:13.225Z,70.20
2022-09-12T18:26:40.529Z,97.80
2022-09-12T18:29:07.884Z,99.90
2022-09-12T18:31:35.191Z,99.90
2022-09-12T18:34:02.698Z,99.90
2022-09-12T18:36:30.574Z,99.90
2022-09-12T18:38:59.064Z,99.90
2022-09-12T18:41:26.511Z,99.90
2022-09-12T18:44:01.134Z,99.90
2022-09-12T18:46:29.932Z,99.90
2022-09-12T18:48:58.049Z,99.90
2022-09-12T18:51:31.443Z,99.90
2022-09-12T18:54:00.720Z,99.90
2022-09-12T18:56:33.065Z,99.90
2022-09-12T18:59:01.599Z,99.90
2022-09-12T19:01:34.575Z,99.90
2022-09-12T19:04:04.808Z,99.90
2022-09-12T19:06:37.675Z,99.90
2022-09-12T19:09:08.014Z,99.90
2022-09-12T19:11:40.038Z,99.90
2022-09-12T19:14:07.810Z,99.90
2022-09-12T19:16:35.174Z,99.90
2022-09-12T19:19:03.114Z,99.90
2022-09-12T19:21:31.859Z,99.90
2022-09-12T19:24:05.387Z,99.90
2022-09-12T19:26:32.974Z,99.90
2022-09-12T19:29:02.552Z,99.90
2022-09-12T19:31:30.329Z,1.00
2022-09-12T19:34:05.638Z,1.00
2022-09-12T19:36:44.743Z,1.00
2022-09-12T19:39:13.041Z,1.00
2022-09-12T19:41:39.928Z,1.00
2022-09-12T19:44:06.945Z,1.00
2022-09-12T19:46:34.127Z,1.00
2022-09-12T19:49:01.642Z,1.00
2022-09-12T19:51:28.578Z,1.00
2022-09-12T19:53:55.717Z,1.00
2022-09-12T19:56:22.654Z,98.90
2022-09-12T19:58:55.335Z,99.90
2022-09-12T20:01:25.705Z,99.90
2022-09-12T20:03:53.919Z,99.90
2022-09-12T20:06:20.898Z,99.90
2022-09-12T20:08:47.936Z,99.90
2022-09-12T20:11:20.080Z,99.90
2022-09-12T20:13:47.591Z,99.90
2022-09-12T20:16:21.069Z,99.90
2022-09-12T20:19:00.451Z,1.00
2022-09-12T20:21:31.925Z,1.00
2022-09-12T20:24:11.641Z,1.00
2022-09-12T20:26:38.998Z,1.00
2022-09-12T20:29:06.871Z,77.10
2022-09-12T20:31:34.276Z,6.90
2022-09-12T20:34:01.247Z,1.00
2022-09-12T20:36:28.565Z,1.00
2022-09-12T20:38:58.506Z,1.00
2022-09-12T20:41:27.206Z,1.00
2022-09-12T20:43:55.607Z,1.00
2022-09-12T20:46:23.768Z,1.00
2022-09-12T20:48:51.907Z,1.00
2022-09-12T20:51:20.102Z,99.90
2022-09-12T20:53:48.060Z,1.00
2022-09-12T20:56:15.212Z,1.00
2022-09-12T20:58:44.433Z,1.00
2022-09-12T21:01:13.930Z,1.00
2022-09-12T21:03:42.350Z,1.00
2022-09-12T21:06:10.840Z,1.00
2022-09-12T21:08:37.983Z,1.00
2022-09-12T21:11:05.496Z,1.00
2022-09-12T21:13:32.846Z,1.00
2022-09-12T21:16:01.089Z,99.90
2022-09-12T21:18:28.843Z,1.00
2022-09-12T21:20:56.685Z,1.00
2022-09-12T21:23:25.461Z,58.50
2022-09-12T21:25:52.942Z,1.00
2022-09-12T21:28:20.283Z,1.00
2022-09-12T21:30:51.228Z,1.00
2022-09-12T21:33:20.642Z,1.00
2022-09-12T21:35:49.125Z,3.40
2022-09-12T21:38:19.967Z,58.70
2022-09-12T21:40:48.117Z,99.90
2022-09-12T21:43:15.365Z,1.00
2022-09-12T21:45:42.346Z,99.90
2022-09-12T21:48:09.353Z,99.90
2022-09-12T21:50:36.286Z,99.90
2022-09-12T21:53:03.630Z,1.00
2022-09-12T21:55:31.257Z,99.90
2022-09-12T21:57:58.161Z,99.90
2022-09-12T22:00:25.116Z,1.00
2022-09-12T22:02:53.291Z,99.90
2022-09-12T22:05:21.432Z,1.00
2022-09-12T22:07:48.366Z,1.00
2022-09-12T22:10:15.373Z,1.00
2022-09-12T22:12:46.019Z,1.00
2022-09-12T22:15:38.762Z,23.60
2022-09-12T22:18:00.639Z,1.00
2022-09-12T22:20:27.596Z,1.00
2022-09-12T22:23:12.788Z,99.90
2022-09-12T22:25:40.031Z,1.00
2022-09-12T22:28:07.141Z,1.00
2022-09-12T22:30:34.174Z,1.00
2022-09-12T22:33:01.073Z,99.90
2022-09-12T22:35:28.203Z,99.90
2022-09-12T22:37:55.141Z,1.00
2022-09-12T22:40:22.151Z,99.90
2022-09-12T22:42:52.474Z,1.00
2022-09-12T22:45:20.045Z,1.00
2022-09-12T22:47:47.207Z,1.00
2022-09-12T22:50:14.317Z,1.00
2022-09-12T22:52:41.717Z,1.00
2022-09-12T22:55:09.585Z,1.00
2022-09-12T22:57:37.028Z,1.00
2022-09-12T23:00:10.538Z,1.00
2022-09-12T23:02:38.182Z,99.90
2022-09-12T23:05:06.270Z,99.90
2022-09-12T23:07:33.602Z,1.00
2022-09-12T23:10:00.645Z,99.90
2022-09-12T23:12:27.571Z,1.00
2022-09-12T23:14:54.429Z,1.00
2022-09-12T23:17:21.352Z,1.00
2022-09-12T23:19:48.531Z,1.00
2022-09-12T23:22:15.475Z,99.90
2022-09-12T23:24:42.337Z,1.00
2022-09-12T23:27:09.285Z,1.00
2022-09-12T23:29:36.150Z,1.00
2022-09-12T23:32:04.516Z,1.00
2022-09-12T23:34:31.488Z,99.90
2022-09-12T23:36:58.395Z,99.90
2022-09-12T23:39:25.316Z,99.90
2022-09-12T23:41:52.363Z,99.90
2022-09-12T23:44:19.306Z,99.90
2022-09-12T23:46:46.200Z,99.90
2022-09-12T23:49:13.213Z,99.90
2022-09-12T23:51:40.118Z,99.90
2022-09-12T23:54:07.044Z,1.00
2022-09-12T23:56:33.950Z,99.90
2022-09-12T23:59:00.840Z,99.90
